createdAt,value
2023-04-18T00:00:48.883Z,98951.22
2023-04-18T00:03:22.039Z,98949.59
2023-04-18T00:05:51.315Z,98946.03
2023-04-18T00:08:20.064Z,98944.78
2023-04-18T00:10:49.011Z,98951.47
2023-04-18T00:13:18.464Z,98947.19
2023-04-18T00:15:47.500Z,98955.72
2023-04-18T00:18:17.402Z,98950.22
2023-04-18T00:20:47.963Z,98946.53
2023-04-18T00:23:16.513Z,98953.34
2023-04-18T00:25:45.528Z,98946.44
2023-04-18T00:28:14.225Z,98946.25
2023-04-18T00:30:43.164Z,98948.09
2023-04-18T00:33:11.759Z,98954.81
2023-04-18T00:35:40.947Z,98949.66
2023-04-18T00:38:11.234Z,98952.53
2023-04-18T00:40:41.933Z,98954.63
2023-04-18T00:43:10.509Z,98951.88
2023-04-18T00:45:43.075Z,98948.69
2023-04-18T00:48:12.879Z,98949.13
2023-04-18T00:50:41.943Z,98951.28
2023-04-18T00:53:12.510Z,98953.34
2023-04-18T00:55:42.272Z,98943.28
2023-04-18T00:58:10.931Z,98944.19
2023-04-18T01:00:39.747Z,98944.63
2023-04-18T01:03:10.732Z,98940.97
2023-04-18T01:05:40.165Z,98936.59
2023-04-18T01:08:08.730Z,98941.75
2023-04-18T01:10:39.022Z,98937.16
2023-04-18T01:13:18.258Z,98935.75
2023-04-18T01:15:49.884Z,98937.72
2023-04-18T01:18:19.307Z,98931.78
2023-04-18T01:20:49.956Z,98933.66
2023-04-18T01:23:19.862Z,98932.25
2023-04-18T01:25:50.610Z,98925.97
2023-04-18T01:28:21.406Z,98928.81
2023-04-18T01:30:50.740Z,98927.00
2023-04-18T01:33:19.403Z,98921.84
2023-04-18T01:35:49.950Z,98924.69
2023-04-18T01:38:18.516Z,98925.88
2023-04-18T01:40:47.905Z,98925.38
2023-04-18T01:43:18.238Z,98920.56
2023-04-18T01:45:47.225Z,98931.97
2023-04-18T01:48:15.819Z,98929.91
2023-04-18T01:50:45.304Z,98932.66
2023-04-18T01:53:14.443Z,98928.88
2023-04-18T01:55:46.141Z,98930.50
2023-04-18T01:58:15.750Z,98935.84
2023-04-18T02:00:46.272Z,98934.19
2023-04-18T02:03:15.051Z,98933.69
2023-04-18T02:05:44.277Z,98928.13
2023-04-18T02:08:13.034Z,98930.75
2023-04-18T02:10:42.730Z,98926.09
2023-04-18T02:13:11.376Z,98925.03
2023-04-18T02:15:40.362Z,98926.34
2023-04-18T02:18:11.641Z,98927.09
2023-04-18T02:20:41.886Z,98928.03
2023-04-18T02:23:10.917Z,98936.00
2023-04-18T02:25:39.752Z,98932.53
2023-04-18T02:28:08.363Z,98935.69
2023-04-18T02:30:37.202Z,98940.72
2023-04-18T02:33:05.790Z,98935.69
2023-04-18T02:35:38.387Z,98931.34
2023-04-18T02:38:06.924Z,98934.06
2023-04-18T02:40:35.887Z,98924.91
2023-04-18T02:43:04.460Z,98927.44
2023-04-18T02:45:33.816Z,98928.81
2023-04-18T02:48:02.650Z,98929.84
2023-04-18T02:50:32.188Z,98929.78
2023-04-18T02:53:02.297Z,98927.59
2023-04-18T02:55:43.759Z,98938.75
2023-04-18T02:58:13.345Z,98931.59
2023-04-18T03:01:00.694Z,98929.88
2023-04-18T03:03:46.633Z,98917.88
2023-04-18T03:06:27.332Z,98929.97
2023-04-18T03:08:57.572Z,98936.03
2023-04-18T03:11:27.803Z,98931.59
2023-04-18T03:13:57.700Z,98934.47
2023-04-18T03:16:32.322Z,98933.72
2023-04-18T03:19:01.602Z,98947.25
2023-04-18T03:21:31.573Z,98938.78
2023-04-18T03:24:01.707Z,98932.38
2023-04-18T03:26:30.717Z,98935.09
2023-04-18T03:28:59.389Z,98934.59
2023-04-18T03:31:28.319Z,98933.88
2023-04-18T03:33:57.255Z,98936.44
2023-04-18T03:36:27.386Z,98944.16
2023-04-18T03:38:56.627Z,98940.41
2023-04-18T03:41:28.215Z,98948.81
2023-04-18T03:43:59.076Z,98942.66
2023-04-18T03:46:29.150Z,98943.16
2023-04-18T03:48:58.923Z,98952.47
2023-04-18T03:51:28.598Z,98952.94
2023-04-18T03:53:58.158Z,98948.53
2023-04-18T03:56:28.541Z,98948.28
2023-04-18T03:58:58.965Z,98956.03
2023-04-18T04:01:28.505Z,98955.31
2023-04-18T04:03:57.307Z,98960.22
2023-04-18T04:06:27.453Z,98961.47
2023-04-18T04:08:56.647Z,98963.06
2023-04-18T04:11:29.207Z,98961.31
2023-04-18T04:13:57.933Z,98971.06
2023-04-18T04:16:32.962Z,98969.72
2023-04-18T04:19:02.178Z,98977.91
2023-04-18T04:21:38.561Z,98984.81
2023-04-18T04:24:10.098Z,98979.28
2023-04-18T04:26:44.237Z,98974.78
2023-04-18T04:29:16.450Z,98979.97
2023-04-18T04:31:48.320Z,98978.84
2023-04-18T04:34:25.588Z,98986.44
2023-04-18T04:36:56.187Z,98981.94
2023-04-18T04:39:26.683Z,98990.88
2023-04-18T04:42:17.728Z,98983.88
2023-04-18T04:44:55.885Z,98999.69
2023-04-18T04:47:26.435Z,98997.66
2023-04-18T04:49:56.174Z,98995.34
2023-04-18T04:52:25.124Z,98992.34
2023-04-18T04:54:53.757Z,99005.31
2023-04-18T04:57:26.894Z,98998.25
2023-04-18T04:59:55.493Z,99015.97
2023-04-18T05:02:25.111Z,99015.75
2023-04-18T05:04:53.783Z,99010.34
2023-04-18T05:07:22.701Z,99022.69
2023-04-18T05:09:53.216Z,99006.03
2023-04-18T05:12:22.135Z,99010.25
2023-04-18T05:14:52.160Z,99016.88
2023-04-18T05:17:21.030Z,99020.13
2023-04-18T05:19:49.663Z,99024.38
2023-04-18T05:22:18.563Z,99021.84
2023-04-18T05:24:47.640Z,99026.84
2023-04-18T05:27:18.112Z,99028.38
2023-04-18T05:29:47.852Z,99014.38
2023-04-18T05:32:18.272Z,99028.53
2023-04-18T05:34:46.988Z,99039.63
2023-04-18T05:37:16.263Z,99034.53
2023-04-18T05:39:45.054Z,99038.34
2023-04-18T05:42:14.050Z,99039.03
2023-04-18T05:44:42.619Z,99045.16
2023-04-18T05:47:11.501Z,99036.53
2023-04-18T05:49:41.565Z,99039.16
2023-04-18T05:52:11.430Z,99041.44
2023-04-18T05:54:40.075Z,99044.03
2023-04-18T05:57:08.953Z,99048.66
2023-04-18T05:59:37.734Z,99043.38
2023-04-18T06:02:13.151Z,99051.75
2023-04-18T06:04:44.157Z,99046.84
2023-04-18T06:07:13.313Z,99052.66
2023-04-18T06:09:42.146Z,99053.63
2023-04-18T06:12:11.264Z,99054.88
2023-04-18T06:14:40.020Z,99051.72
2023-04-18T06:17:10.196Z,99059.00
2023-04-18T06:19:40.580Z,99053.28
2023-04-18T06:22:10.935Z,99061.84
2023-04-18T06:24:39.686Z,99058.75
2023-04-18T06:27:15.041Z,99069.47
2023-04-18T06:29:49.318Z,99060.47
2023-04-18T06:32:18.401Z,99063.31
2023-04-18T06:34:47.034Z,99063.63
2023-04-18T06:37:18.007Z,99062.63
2023-04-18T06:39:46.909Z,99059.97
2023-04-18T06:42:15.956Z,99070.41
2023-04-18T06:44:49.554Z,99079.72
2023-04-18T06:47:18.655Z,99071.81
2023-04-18T06:49:47.415Z,99079.09
2023-04-18T06:52:17.625Z,99090.81
2023-04-18T06:54:46.165Z,99089.59
2023-04-18T06:57:15.313Z,99093.84
2023-04-18T06:59:44.025Z,99088.66
2023-04-18T07:02:13.400Z,99092.81
2023-04-18T07:04:42.354Z,99093.53
2023-04-18T07:07:11.471Z,99087.00
2023-04-18T07:09:41.508Z,99096.38
2023-04-18T07:12:10.480Z,99099.25
2023-04-18T07:14:39.119Z,99104.66
2023-04-18T07:17:08.686Z,99100.06
2023-04-18T07:19:37.390Z,99099.16
2023-04-18T07:22:06.433Z,99096.34
2023-04-18T07:24:35.130Z,99106.25
2023-04-18T07:27:05.808Z,99114.50
2023-04-18T07:29:34.457Z,99111.78
2023-04-18T07:32:05.171Z,99102.53
2023-04-18T07:34:36.364Z,99106.34
2023-04-18T07:37:05.392Z,99098.22
2023-04-18T07:39:36.159Z,99110.59
2023-04-18T07:42:06.983Z,99117.41
2023-04-18T07:44:36.789Z,99110.69
2023-04-18T07:47:10.027Z,99120.25
2023-04-18T07:49:39.490Z,99126.19
2023-04-18T07:52:08.604Z,99123.75
2023-04-18T07:54:37.203Z,99126.06
2023-04-18T07:57:07.497Z,99125.53
2023-04-18T07:59:36.296Z,99131.78
2023-04-18T08:02:05.270Z,99135.28
2023-04-18T08:04:34.335Z,99132.66
2023-04-18T08:07:03.370Z,99135.28
2023-04-18T08:09:31.999Z,99134.00
2023-04-18T08:12:01.059Z,99136.59
2023-04-18T08:14:31.268Z,99133.94
2023-04-18T08:17:01.623Z,99136.81
2023-04-18T08:19:30.925Z,99139.47
2023-04-18T08:22:10.488Z,99137.72
2023-04-18T08:24:40.115Z,99145.50
2023-04-18T08:27:09.118Z,99140.69
2023-04-18T08:29:39.294Z,99141.66
2023-04-18T08:32:09.380Z,99135.28
2023-04-18T08:34:38.276Z,99144.19
2023-04-18T08:37:07.393Z,99143.19
2023-04-18T08:39:36.271Z,99149.28
2023-04-18T08:42:07.716Z,99153.56
2023-04-18T08:44:37.394Z,99154.09
2023-04-18T08:47:09.523Z,99156.25
2023-04-18T08:49:38.281Z,99151.53
2023-04-18T08:52:12.603Z,99155.53
2023-04-18T08:54:44.324Z,99149.50
2023-04-18T08:57:16.589Z,99153.97
2023-04-18T08:59:49.641Z,99157.88
2023-04-18T09:02:23.446Z,99156.59
2023-04-18T09:04:53.870Z,99157.44
2023-04-18T09:07:30.163Z,99160.75
2023-04-18T09:09:59.623Z,99164.06
2023-04-18T09:12:32.860Z,99163.09
2023-04-18T09:15:13.906Z,99163.97
2023-04-18T09:17:49.778Z,99168.41
2023-04-18T09:20:34.679Z,99159.44
2023-04-18T09:23:05.622Z,99173.69
2023-04-18T09:25:40.103Z,99166.81
2023-04-18T09:28:24.743Z,99168.31
2023-04-18T09:30:54.803Z,99171.69
2023-04-18T09:33:29.584Z,99173.03
2023-04-18T09:36:16.771Z,99165.25
2023-04-18T09:38:46.415Z,99159.59
2023-04-18T09:41:19.931Z,99157.69
2023-04-18T09:43:50.677Z,99159.56
2023-04-18T09:46:22.609Z,99158.63
2023-04-18T09:48:53.177Z,99163.19
2023-04-18T09:51:21.798Z,99164.94
2023-04-18T09:53:51.164Z,99161.97
2023-04-18T09:56:25.900Z,99161.34
2023-04-18T09:58:58.303Z,99170.38
2023-04-18T10:01:29.715Z,99162.03
2023-04-18T10:04:04.298Z,99169.78
2023-04-18T10:06:38.562Z,99172.75
2023-04-18T10:09:10.909Z,99173.00
2023-04-18T10:11:39.783Z,99170.56
2023-04-18T10:14:12.751Z,99165.28
2023-04-18T10:16:43.301Z,99173.00
2023-04-18T10:19:31.886Z,99172.94
2023-04-18T10:22:01.613Z,99171.72
2023-04-18T10:24:48.362Z,99168.84
2023-04-18T10:27:17.552Z,99168.78
2023-04-18T10:29:50.923Z,99172.13
2023-04-18T10:32:20.709Z,99170.19
2023-04-18T10:34:53.546Z,99172.19
2023-04-18T10:37:22.114Z,99167.41
2023-04-18T10:39:57.061Z,99173.88
2023-04-18T10:42:58.993Z,99169.28
2023-04-18T10:45:31.424Z,99174.13
2023-04-18T10:48:30.071Z,99170.97
2023-04-18T10:51:24.334Z,99172.13
2023-04-18T10:53:55.300Z,99171.16
2023-04-18T10:56:26.353Z,99172.84
2023-04-18T10:58:57.417Z,99171.22
2023-04-18T11:01:32.185Z,99161.50
2023-04-18T11:04:02.047Z,99160.69
2023-04-18T11:06:32.646Z,99169.94
2023-04-18T11:09:11.781Z,99171.13
2023-04-18T11:11:41.511Z,99163.13
2023-04-18T11:14:10.281Z,99164.63
2023-04-18T11:16:39.326Z,99165.94
2023-04-18T11:19:23.346Z,99172.63
2023-04-18T11:21:54.247Z,99169.38
2023-04-18T11:24:24.386Z,99166.81
2023-04-18T11:26:55.938Z,99171.28
2023-04-18T11:29:24.980Z,99158.19
2023-04-18T11:31:58.303Z,99172.84
2023-04-18T11:34:30.568Z,99160.69
2023-04-18T11:37:00.890Z,99162.41
2023-04-18T11:39:29.599Z,99164.78
2023-04-18T11:42:01.809Z,99162.69
2023-04-18T11:44:30.494Z,99165.00
2023-04-18T11:46:59.257Z,99155.69
2023-04-18T11:49:29.410Z,99161.31
2023-04-18T11:51:58.791Z,99167.38
2023-04-18T11:54:39.753Z,99167.69
2023-04-18T11:57:20.570Z,99165.69
2023-04-18T11:59:51.254Z,99157.88
2023-04-18T12:02:20.721Z,99159.69
2023-04-18T12:04:57.758Z,99159.78
2023-04-18T12:07:38.217Z,99164.72
2023-04-18T12:10:10.448Z,99156.34
2023-04-18T12:12:48.583Z,99160.66
2023-04-18T12:15:18.440Z,99169.06
2023-04-18T12:17:49.369Z,99162.47
2023-04-18T12:20:18.467Z,99167.94
2023-04-18T12:22:49.757Z,99165.72
2023-04-18T12:25:26.209Z,99153.59
2023-04-18T12:27:59.207Z,99158.28
2023-04-18T12:30:29.858Z,99158.28
2023-04-18T12:33:01.103Z,99148.28
2023-04-18T12:35:31.272Z,99159.41
2023-04-18T12:38:03.632Z,99150.81
2023-04-18T12:40:33.529Z,99156.78
2023-04-18T12:43:03.693Z,99151.41
2023-04-18T12:45:32.657Z,99154.22
2023-04-18T12:48:02.240Z,99156.56
2023-04-18T12:50:31.085Z,99150.09
2023-04-18T12:53:01.560Z,99152.16
2023-04-18T12:55:30.730Z,99149.25
2023-04-18T12:58:01.444Z,99153.31
2023-04-18T13:00:33.260Z,99147.09
2023-04-18T13:03:11.779Z,99147.16
2023-04-18T13:05:42.778Z,99155.88
2023-04-18T13:08:17.101Z,99147.50
2023-04-18T13:10:47.756Z,99148.50
2023-04-18T13:13:18.263Z,99152.09
2023-04-18T13:15:47.038Z,99142.31
2023-04-18T13:18:16.106Z,99142.59
2023-04-18T13:20:45.051Z,99141.22
2023-04-18T13:23:14.092Z,99129.13
2023-04-18T13:25:44.900Z,99138.63
2023-04-18T13:28:13.957Z,99144.03
2023-04-18T13:30:43.982Z,99144.91
2023-04-18T13:33:13.123Z,99147.00
2023-04-18T13:35:42.226Z,99137.41
2023-04-18T13:38:11.166Z,99144.03
2023-04-18T13:40:39.919Z,99147.13
2023-04-18T13:43:11.055Z,99142.31
2023-04-18T13:45:39.941Z,99148.47
2023-04-18T13:48:13.840Z,99144.09
2023-04-18T13:50:43.761Z,99143.16
2023-04-18T13:53:12.882Z,99147.06
2023-04-18T13:55:42.452Z,99145.19
2023-04-18T13:58:11.534Z,99149.09
2023-04-18T14:00:40.133Z,99151.84
2023-04-18T14:03:09.338Z,99151.69
2023-04-18T14:05:39.379Z,99148.78
2023-04-18T14:08:08.862Z,99151.06
2023-04-18T14:10:37.792Z,99154.53
2023-04-18T14:13:06.777Z,99156.94
2023-04-18T14:15:35.602Z,99153.66
2023-04-18T14:18:05.181Z,99155.09
2023-04-18T14:20:35.254Z,99154.09
2023-04-18T14:23:06.640Z,99155.16
2023-04-18T14:25:35.365Z,99162.75
2023-04-18T14:28:09.754Z,99166.84
2023-04-18T14:30:39.156Z,99160.47
2023-04-18T14:33:09.497Z,99159.97
2023-04-18T14:35:38.559Z,99162.69
2023-04-18T14:38:09.005Z,99159.97
2023-04-18T14:40:38.150Z,99155.69
2023-04-18T14:43:07.351Z,99161.34
2023-04-18T14:45:36.142Z,99162.50
2023-04-18T14:48:06.813Z,99153.13
2023-04-18T14:50:38.684Z,99155.34
2023-04-18T14:53:09.504Z,99154.72
2023-04-18T14:55:38.864Z,99159.66
2023-04-18T14:58:08.083Z,99161.19
2023-04-18T15:00:37.603Z,99153.78
2023-04-18T15:03:09.766Z,99148.47
2023-04-18T15:05:42.996Z,99151.25
2023-04-18T15:08:14.744Z,99143.09
2023-04-18T15:10:44.792Z,99141.94
2023-04-18T15:13:14.712Z,99141.00
2023-04-18T15:15:43.466Z,99144.50
2023-04-18T15:18:13.858Z,99140.19
2023-04-18T15:21:03.078Z,99142.84
2023-04-18T15:23:34.852Z,99146.81
2023-04-18T15:26:04.968Z,99146.28
2023-04-18T15:28:34.548Z,99153.53
2023-04-18T15:31:03.291Z,99147.63
2023-04-18T15:33:32.441Z,99149.66
2023-04-18T15:36:01.089Z,99146.59
2023-04-18T15:38:33.368Z,99151.06
2023-04-18T15:41:03.899Z,99149.19
2023-04-18T15:43:32.954Z,99152.06
2023-04-18T15:46:02.011Z,99153.63
2023-04-18T15:48:34.190Z,99148.50
2023-04-18T15:51:03.302Z,99148.78
2023-04-18T15:53:32.734Z,99147.47
2023-04-18T15:56:02.222Z,99147.31
2023-04-18T15:58:32.672Z,99154.75
2023-04-18T16:01:02.111Z,99154.19
2023-04-18T16:03:31.795Z,99150.78
2023-04-18T16:06:00.869Z,99156.84
2023-04-18T16:08:32.603Z,99156.56
2023-04-18T16:11:02.046Z,99157.31
2023-04-18T16:13:38.313Z,99155.59
2023-04-18T16:16:07.770Z,99165.09
2023-04-18T16:18:36.789Z,99164.69
2023-04-18T16:21:05.971Z,99169.81
2023-04-18T16:23:35.057Z,99168.91
2023-04-18T16:26:03.846Z,99175.06
2023-04-18T16:28:37.718Z,99172.34
2023-04-18T16:31:06.872Z,99165.00
2023-04-18T16:33:35.942Z,99168.94
2023-04-18T16:36:05.541Z,99164.94
2023-04-18T16:38:34.999Z,99170.69
2023-04-18T16:41:04.114Z,99167.56
2023-04-18T16:43:36.642Z,99177.44
2023-04-18T16:46:05.738Z,99181.03
2023-04-18T16:48:37.855Z,99178.22
2023-04-18T16:51:06.904Z,99180.50
2023-04-18T16:53:36.111Z,99185.84
2023-04-18T16:56:05.088Z,99184.03
2023-04-18T16:58:35.965Z,99186.44
2023-04-18T17:01:05.105Z,99187.78
2023-04-18T17:03:34.218Z,99187.59
2023-04-18T17:06:03.310Z,99185.00
2023-04-18T17:08:33.693Z,99193.13
2023-04-18T17:11:05.475Z,99193.06
2023-04-18T17:13:36.414Z,99197.47
2023-04-18T17:16:06.164Z,99198.16
2023-04-18T17:18:35.715Z,99196.28
2023-04-18T17:21:04.698Z,99200.53
2023-04-18T17:23:34.777Z,99205.69
2023-04-18T17:26:03.488Z,99201.97
2023-04-18T17:28:33.590Z,99211.19
2023-04-18T17:31:03.970Z,99211.84
2023-04-18T17:33:33.635Z,99210.25
2023-04-18T17:36:03.287Z,99212.31
2023-04-18T17:38:34.150Z,99207.41
2023-04-18T17:41:04.657Z,99220.50
2023-04-18T17:43:33.650Z,99218.81
2023-04-18T17:46:03.884Z,99217.69
2023-04-18T17:48:33.006Z,99211.50
2023-04-18T17:51:02.124Z,99213.41
2023-04-18T17:53:32.279Z,99217.03
2023-04-18T17:56:01.312Z,99215.06
2023-04-18T17:58:30.452Z,99219.88
2023-04-18T18:00:59.188Z,99224.63
2023-04-18T18:03:29.929Z,99225.78
2023-04-18T18:05:58.595Z,99235.69
2023-04-18T18:08:27.985Z,99237.63
2023-04-18T18:10:56.661Z,99234.13
2023-04-18T18:13:25.748Z,99237.09
2023-04-18T18:15:55.466Z,99234.88
2023-04-18T18:18:31.513Z,99234.63
2023-04-18T18:21:00.278Z,99236.34
2023-04-18T18:23:29.503Z,99234.56
2023-04-18T18:25:58.100Z,99239.84
2023-04-18T18:28:27.330Z,99240.78
2023-04-18T18:30:56.027Z,99245.88
2023-04-18T18:33:25.257Z,99244.88
2023-04-18T18:35:57.911Z,99241.13
2023-04-18T18:38:27.662Z,99241.88
2023-04-18T18:40:56.365Z,99247.97
2023-04-18T18:43:26.352Z,99247.78
2023-04-18T18:45:55.301Z,99253.81
2023-04-18T18:48:24.616Z,99253.66
2023-04-18T18:50:53.306Z,99259.53
2023-04-18T18:53:23.771Z,99261.91
2023-04-18T18:55:52.400Z,99261.16
2023-04-18T18:58:21.678Z,99258.59
2023-04-18T19:00:51.203Z,99260.88
2023-04-18T19:03:21.416Z,99267.56
2023-04-18T19:05:50.389Z,99260.28
2023-04-18T19:08:19.343Z,99268.72
2023-04-18T19:10:49.398Z,99262.31
2023-04-18T19:13:20.411Z,99264.97
2023-04-18T19:15:49.104Z,99260.94
2023-04-18T19:18:19.559Z,99265.13
2023-04-18T19:20:50.789Z,99263.22
2023-04-18T19:23:19.736Z,99262.22
2023-04-18T19:25:49.771Z,99263.63
2023-04-18T19:28:19.131Z,99271.69
2023-04-18T19:30:48.178Z,99266.22
2023-04-18T19:33:17.385Z,99262.34
2023-04-18T19:35:46.098Z,99264.69
2023-04-18T19:38:15.170Z,99271.56
2023-04-18T19:40:44.023Z,99266.97
2023-04-18T19:43:14.452Z,99262.22
2023-04-18T19:45:43.439Z,99261.44
2023-04-18T19:48:12.346Z,99259.63
2023-04-18T19:50:42.216Z,99256.94
2023-04-18T19:53:12.334Z,99258.84
2023-04-18T19:55:41.828Z,99260.63
2023-04-18T19:58:11.071Z,99265.06
2023-04-18T20:00:41.593Z,99257.72
2023-04-18T20:03:11.176Z,99261.09
2023-04-18T20:05:40.094Z,99267.63
2023-04-18T20:08:10.229Z,99271.31
2023-04-18T20:10:39.238Z,99268.47
2023-04-18T20:13:08.471Z,99266.13
2023-04-18T20:15:37.195Z,99263.28
2023-04-18T20:18:07.779Z,99265.66
2023-04-18T20:20:36.581Z,99262.03
2023-04-18T20:23:05.705Z,99270.59
2023-04-18T20:25:34.937Z,99267.75
2023-04-18T20:28:04.143Z,99271.91
2023-04-18T20:30:32.950Z,99273.53
2023-04-18T20:33:02.010Z,99267.88
2023-04-18T20:35:34.371Z,99265.25
2023-04-18T20:38:03.267Z,99274.81
2023-04-18T20:40:33.334Z,99276.06
2023-04-18T20:43:03.327Z,99272.75
2023-04-18T20:45:34.733Z,99264.72
2023-04-18T20:48:03.918Z,99262.25
2023-04-18T20:50:33.930Z,99252.16
2023-04-18T20:53:04.061Z,99253.00
2023-04-18T20:55:32.961Z,99255.91
2023-04-18T20:58:02.051Z,99255.00
2023-04-18T21:00:33.467Z,99256.47
2023-04-18T21:03:02.514Z,99263.72
2023-04-18T21:05:31.580Z,99246.34
2023-04-18T21:08:01.978Z,99254.81
2023-04-18T21:10:30.850Z,99252.97
2023-04-18T21:13:00.031Z,99255.06
2023-04-18T21:15:28.650Z,99248.66
2023-04-18T21:17:58.202Z,99249.97
2023-04-18T21:20:26.918Z,99240.00
2023-04-18T21:22:55.788Z,99245.78
2023-04-18T21:25:25.902Z,99242.78
2023-04-18T21:27:54.940Z,99248.81
2023-04-18T21:30:23.616Z,99246.84
2023-04-18T21:32:52.566Z,99233.59
2023-04-18T21:35:23.339Z,99239.75
2023-04-18T21:37:53.867Z,99229.41
2023-04-18T21:40:22.744Z,99233.91
2023-04-18T21:42:53.050Z,99236.38
2023-04-18T21:45:21.962Z,99229.41
2023-04-18T21:47:51.136Z,99223.97
2023-04-18T21:50:19.721Z,99220.41
2023-04-18T21:52:48.563Z,99222.94
2023-04-18T21:55:17.202Z,99223.78
2023-04-18T21:57:46.175Z,99228.25
2023-04-18T22:00:17.315Z,99228.03
2023-04-18T22:02:47.149Z,99236.13
2023-04-18T22:05:16.320Z,99232.50
2023-04-18T22:07:56.895Z,99231.09
2023-04-18T22:10:26.484Z,99236.84
2023-04-18T22:12:56.027Z,99240.13
2023-04-18T22:15:27.568Z,99239.47
2023-04-18T22:17:56.539Z,99244.47
2023-04-18T22:20:27.048Z,99234.22
2023-04-18T22:22:56.110Z,99232.09
2023-04-18T22:25:24.765Z,99226.44
2023-04-18T22:27:53.821Z,99216.44
2023-04-18T22:30:22.668Z,99215.41
2023-04-18T22:32:52.983Z,99212.53
2023-04-18T22:35:21.561Z,99209.13
2023-04-18T22:37:50.411Z,99209.97
2023-04-18T22:40:19.117Z,99207.44
2023-04-18T22:42:48.051Z,99203.94
2023-04-18T22:45:16.689Z,99199.63
2023-04-18T22:47:46.376Z,99200.59
2023-04-18T22:50:16.707Z,99205.94
2023-04-18T22:52:46.529Z,99201.72
2023-04-18T22:55:16.555Z,99199.38
2023-04-18T22:57:45.473Z,99194.91
2023-04-18T23:00:14.852Z,99187.84
2023-04-18T23:02:44.140Z,99188.81
2023-04-18T23:05:15.524Z,99177.41
2023-04-18T23:07:46.132Z,99181.75
2023-04-18T23:10:14.765Z,99185.47
2023-04-18T23:12:43.755Z,99175.94
2023-04-18T23:15:12.802Z,99181.38
2023-04-18T23:17:41.870Z,99181.56
2023-04-18T23:20:12.475Z,99184.25
2023-04-18T23:22:41.688Z,99174.81
2023-04-18T23:25:11.838Z,99167.69
2023-04-18T23:27:40.794Z,99175.00
2023-04-18T23:30:10.347Z,99170.88
2023-04-18T23:32:39.309Z,99169.97
2023-04-18T23:35:08.213Z,99168.41
2023-04-18T23:37:37.272Z,99165.00
2023-04-18T23:40:07.128Z,99165.00
2023-04-18T23:42:37.564Z,99157.91
2023-04-18T23:45:07.112Z,99163.47
2023-04-18T23:47:36.472Z,99159.16
2023-04-18T23:50:05.756Z,99164.66
2023-04-18T23:52:34.804Z,99151.16
2023-04-18T23:55:03.753Z,99147.53
2023-04-18T23:57:34.350Z,99151.81
